createdAt,value
2023-10-20T00:00:21.005Z,100.00
2023-10-20T00:02:48.389Z,100.00
2023-10-20T00:05:15.753Z,100.00
2023-10-20T00:07:44.242Z,100.00
2023-10-20T00:10:12.912Z,100.00
2023-10-20T00:12:40.603Z,100.00
2023-10-20T00:15:10.975Z,100.00
2023-10-20T00:17:38.361Z,100.00
2023-10-20T00:20:06.148Z,100.00
2023-10-20T00:22:37.784Z,100.00
2023-10-20T00:25:07.734Z,100.00
2023-10-20T00:27:37.391Z,100.00
2023-10-20T00:30:09.196Z,100.00
2023-10-20T00:32:41.949Z,100.00
2023-10-20T00:35:11.901Z,100.00
2023-10-20T00:37:39.554Z,100.00
2023-10-20T00:40:09.233Z,100.00
2023-10-20T00:42:39.303Z,100.00
2023-10-20T00:45:09.921Z,100.00
2023-10-20T00:47:38.461Z,100.00
2023-10-20T00:50:07.910Z,100.00
2023-10-20T00:52:39.103Z,100.00
2023-10-20T00:55:09.348Z,100.00
2023-10-20T00:57:44.275Z,100.00
2023-10-20T01:00:12.591Z,100.00
2023-10-20T01:02:40.050Z,100.00
2023-10-20T01:05:08.510Z,100.00
2023-10-20T01:07:36.852Z,100.00
2023-10-20T01:10:08.741Z,100.00
2023-10-20T01:12:36.290Z,100.00
2023-10-20T01:15:06.936Z,100.00
2023-10-20T01:17:39.841Z,100.00
2023-10-20T01:20:08.805Z,100.00
2023-10-20T01:22:36.052Z,100.00
2023-10-20T01:25:05.660Z,100.00
2023-10-20T01:27:33.682Z,100.00
2023-10-20T01:30:00.903Z,100.00
2023-10-20T01:32:29.122Z,100.00
2023-10-20T01:34:58.327Z,100.00
2023-10-20T01:37:26.149Z,100.00
2023-10-20T01:39:54.431Z,100.00
2023-10-20T01:42:23.015Z,100.00
2023-10-20T01:44:50.517Z,100.00
2023-10-20T01:47:20.086Z,100.00
2023-10-20T01:49:48.815Z,100.00
2023-10-20T01:52:16.757Z,100.00
2023-10-20T01:54:43.991Z,100.00
2023-10-20T01:57:14.728Z,100.00
2023-10-20T01:59:42.923Z,100.00
2023-10-20T02:02:10.677Z,100.00
2023-10-20T02:04:40.125Z,100.00
2023-10-20T02:07:08.394Z,100.00
2023-10-20T02:09:36.118Z,100.00
2023-10-20T02:12:05.327Z,100.00
2023-10-20T02:14:32.767Z,100.00
2023-10-20T02:17:02.748Z,100.00
2023-10-20T02:19:30.544Z,100.00
2023-10-20T02:22:01.056Z,100.00
2023-10-20T02:24:31.362Z,100.00
2023-10-20T02:26:59.363Z,100.00
2023-10-20T02:29:26.731Z,100.00
2023-10-20T02:31:55.164Z,100.00
2023-10-20T02:34:24.470Z,100.00
2023-10-20T02:36:52.996Z,100.00
2023-10-20T02:39:21.716Z,100.00
2023-10-20T02:41:50.284Z,100.00
2023-10-20T02:44:17.512Z,100.00
2023-10-20T02:46:47.070Z,100.00
2023-10-20T02:49:14.425Z,100.00
2023-10-20T02:51:41.721Z,100.00
2023-10-20T02:54:11.663Z,100.00
2023-10-20T02:56:41.935Z,100.00
2023-10-20T02:59:13.207Z,100.00
2023-10-20T03:01:45.023Z,100.00
2023-10-20T03:04:12.410Z,100.00
2023-10-20T03:06:39.748Z,100.00
2023-10-20T03:09:07.557Z,100.00
2023-10-20T03:11:36.805Z,100.00
2023-10-20T03:14:07.499Z,100.00
2023-10-20T03:16:39.883Z,100.00
2023-10-20T03:19:09.801Z,100.00
2023-10-20T03:21:37.122Z,100.00
2023-10-20T03:24:07.341Z,100.00
2023-10-20T03:26:35.132Z,100.00
2023-10-20T03:29:06.326Z,100.00
2023-10-20T03:31:35.127Z,100.00
2023-10-20T03:34:06.945Z,100.00
2023-10-20T03:36:34.145Z,100.00
2023-10-20T03:39:01.993Z,100.00
2023-10-20T03:41:30.752Z,100.00
2023-10-20T03:43:58.845Z,100.00
2023-10-20T03:46:28.390Z,100.00
2023-10-20T03:48:58.832Z,100.00
2023-10-20T03:51:28.352Z,100.00
2023-10-20T03:53:56.759Z,100.00
2023-10-20T03:56:25.689Z,100.00
2023-10-20T03:58:57.998Z,100.00
2023-10-20T04:01:25.347Z,100.00
2023-10-20T04:03:53.060Z,100.00
2023-10-20T04:06:21.860Z,100.00
2023-10-20T04:08:49.084Z,100.00
2023-10-20T04:11:16.303Z,100.00
2023-10-20T04:13:44.213Z,100.00
2023-10-20T04:16:18.801Z,100.00
2023-10-20T04:18:48.776Z,100.00
2023-10-20T04:21:19.355Z,100.00
2023-10-20T04:23:47.424Z,100.00
2023-10-20T04:26:25.440Z,100.00
2023-10-20T04:29:13.542Z,100.00
2023-10-20T04:32:00.803Z,100.00
2023-10-20T04:34:47.799Z,100.00
2023-10-20T04:37:33.635Z,100.00
2023-10-20T04:40:19.494Z,100.00
2023-10-20T04:43:05.437Z,100.00
2023-10-20T04:45:32.650Z,100.00
2023-10-20T04:48:14.530Z,100.00
2023-10-20T04:50:55.402Z,100.00
2023-10-20T04:53:51.789Z,100.00
2023-10-20T04:56:41.444Z,100.00
2023-10-20T04:59:12.073Z,100.00
2023-10-20T05:01:43.259Z,100.00
2023-10-20T05:04:40.934Z,100.00
2023-10-20T05:07:10.976Z,100.00
2023-10-20T05:09:46.935Z,100.00
2023-10-20T05:12:15.435Z,100.00
2023-10-20T05:14:44.286Z,100.00
2023-10-20T05:17:16.705Z,100.00
2023-10-20T05:19:44.437Z,100.00
2023-10-20T05:22:13.820Z,100.00
2023-10-20T05:24:42.770Z,100.00
2023-10-20T05:27:13.906Z,100.00
2023-10-20T05:29:41.299Z,100.00
2023-10-20T05:32:13.204Z,100.00
2023-10-20T05:34:43.253Z,100.00
2023-10-20T05:37:12.714Z,100.00
2023-10-20T05:39:40.442Z,100.00
2023-10-20T05:42:10.271Z,100.00
2023-10-20T05:44:39.473Z,100.00
2023-10-20T05:47:08.090Z,100.00
2023-10-20T05:49:37.775Z,100.00
2023-10-20T05:52:05.310Z,99.99
2023-10-20T05:54:33.820Z,99.93
2023-10-20T05:57:02.561Z,99.83
2023-10-20T05:59:30.094Z,99.90
2023-10-20T06:02:00.007Z,99.71
2023-10-20T06:04:28.910Z,99.59
2023-10-20T06:06:58.128Z,99.36
2023-10-20T06:09:27.570Z,99.34
2023-10-20T06:11:57.198Z,98.84
2023-10-20T06:14:25.869Z,98.68
2023-10-20T06:16:54.556Z,98.50
2023-10-20T06:19:23.353Z,98.23
2023-10-20T06:21:53.366Z,98.13
2023-10-20T06:24:20.685Z,97.97
2023-10-20T06:26:49.244Z,97.91
2023-10-20T06:29:40.085Z,97.70
2023-10-20T06:32:25.975Z,97.29
2023-10-20T06:35:01.854Z,97.07
2023-10-20T06:37:38.906Z,96.82
2023-10-20T06:40:07.531Z,96.63
2023-10-20T06:42:37.798Z,96.46
2023-10-20T06:45:07.182Z,96.18
2023-10-20T06:47:37.094Z,95.96
2023-10-20T06:50:04.859Z,95.80
2023-10-20T06:52:32.295Z,95.61
2023-10-20T06:55:30.477Z,95.42
2023-10-20T06:57:50.179Z,95.18
2023-10-20T07:00:19.364Z,94.91
2023-10-20T07:02:46.746Z,94.61
2023-10-20T07:05:16.550Z,94.34
2023-10-20T07:07:43.891Z,94.28
2023-10-20T07:10:12.066Z,94.00
2023-10-20T07:12:39.810Z,94.05
2023-10-20T07:15:08.461Z,93.76
2023-10-20T07:17:36.965Z,93.50
2023-10-20T07:20:07.859Z,93.27
2023-10-20T07:22:37.668Z,92.90
2023-10-20T07:25:09.419Z,92.59
2023-10-20T07:27:37.118Z,92.57
2023-10-20T07:30:05.384Z,92.31
2023-10-20T07:32:32.745Z,91.72
2023-10-20T07:35:04.824Z,91.80
2023-10-20T07:37:34.983Z,91.71
2023-10-20T07:40:02.487Z,91.77
2023-10-20T07:42:30.639Z,91.48
2023-10-20T07:44:58.908Z,91.18
2023-10-20T07:47:27.384Z,90.98
2023-10-20T07:49:59.342Z,90.50
2023-10-20T07:52:30.268Z,90.19
2023-10-20T07:54:58.741Z,90.38
2023-10-20T07:57:33.089Z,89.48
2023-10-20T08:00:00.743Z,89.73
2023-10-20T08:02:29.048Z,89.53
2023-10-20T08:04:57.643Z,89.38
2023-10-20T08:07:27.616Z,89.25
2023-10-20T08:09:55.186Z,89.25
2023-10-20T08:12:25.637Z,88.98
2023-10-20T08:14:52.941Z,88.91
2023-10-20T08:17:22.947Z,88.49
2023-10-20T08:19:52.599Z,88.66
2023-10-20T08:22:23.870Z,88.35
2023-10-20T08:25:01.528Z,87.99
2023-10-20T08:27:28.988Z,87.46
2023-10-20T08:29:58.589Z,87.38
2023-10-20T08:32:27.315Z,87.00
2023-10-20T08:35:00.363Z,86.36
2023-10-20T08:37:28.517Z,86.22
2023-10-20T08:39:56.477Z,85.88
2023-10-20T08:42:25.860Z,85.64
2023-10-20T08:44:55.872Z,85.35
2023-10-20T08:47:26.722Z,84.92
2023-10-20T08:50:03.025Z,85.04
2023-10-20T08:52:30.286Z,84.65
2023-10-20T08:54:59.790Z,84.43
2023-10-20T08:57:32.966Z,83.67
2023-10-20T09:00:01.389Z,83.93
2023-10-20T09:02:39.511Z,83.50
2023-10-20T09:05:08.394Z,82.81
2023-10-20T09:07:39.104Z,82.46
2023-10-20T09:10:09.545Z,82.52
2023-10-20T09:12:37.024Z,82.05
2023-10-20T09:15:04.577Z,81.23
2023-10-20T09:17:35.489Z,81.21
2023-10-20T09:20:13.021Z,80.81
2023-10-20T09:22:40.440Z,80.02
2023-10-20T09:25:14.577Z,79.60
2023-10-20T09:27:43.382Z,79.76
2023-10-20T09:30:12.577Z,79.45
2023-10-20T09:32:50.844Z,78.79
2023-10-20T09:35:23.179Z,78.85
2023-10-20T09:37:55.287Z,78.25
2023-10-20T09:40:25.713Z,78.18
2023-10-20T09:43:14.902Z,78.05
2023-10-20T09:45:49.090Z,77.59
2023-10-20T09:48:21.397Z,76.97
2023-10-20T09:50:52.101Z,76.83
2023-10-20T09:53:20.401Z,76.73
2023-10-20T09:55:49.800Z,76.89
2023-10-20T09:58:28.999Z,76.46
2023-10-20T10:00:58.641Z,76.13
2023-10-20T10:03:55.820Z,75.54
2023-10-20T10:06:25.025Z,75.40
2023-10-20T10:08:54.104Z,74.96
2023-10-20T10:11:36.173Z,74.94
2023-10-20T10:14:08.224Z,73.20
2023-10-20T10:17:00.264Z,73.41
2023-10-20T10:19:29.931Z,72.89
2023-10-20T10:22:01.594Z,73.05
2023-10-20T10:24:33.161Z,72.49
2023-10-20T10:27:02.837Z,71.47
2023-10-20T10:29:52.573Z,71.49
2023-10-20T10:32:50.283Z,71.21
2023-10-20T10:35:39.854Z,71.32
2023-10-20T10:38:32.413Z,70.97
2023-10-20T10:41:02.272Z,70.39
2023-10-20T10:43:32.133Z,70.06
2023-10-20T10:45:59.463Z,69.63
2023-10-20T10:48:29.565Z,68.89
2023-10-20T10:50:58.215Z,68.90
2023-10-20T10:53:27.489Z,68.79
2023-10-20T10:55:57.124Z,67.70
2023-10-20T10:58:26.778Z,67.80
2023-10-20T11:00:56.128Z,67.67
2023-10-20T11:03:26.025Z,67.42
2023-10-20T11:05:54.102Z,67.40
2023-10-20T11:08:23.945Z,67.61
2023-10-20T11:10:53.809Z,67.63
2023-10-20T11:13:24.183Z,66.83
2023-10-20T11:15:53.919Z,66.42
2023-10-20T11:18:22.439Z,65.75
2023-10-20T11:20:54.977Z,65.97
2023-10-20T11:23:35.361Z,65.00
2023-10-20T11:26:18.744Z,63.78
2023-10-20T11:28:48.211Z,63.40
2023-10-20T11:31:16.742Z,62.23
2023-10-20T11:33:45.043Z,61.59
2023-10-20T11:36:13.664Z,60.77
2023-10-20T11:38:41.027Z,60.50
2023-10-20T11:41:12.062Z,60.67
2023-10-20T11:43:39.299Z,59.75
2023-10-20T11:46:08.192Z,59.85
2023-10-20T11:48:40.260Z,59.66
2023-10-20T11:51:11.565Z,59.31
2023-10-20T11:53:40.198Z,59.77
2023-10-20T11:56:12.300Z,59.01
2023-10-20T11:58:41.959Z,58.61
2023-10-20T12:01:09.214Z,58.82
2023-10-20T12:03:40.294Z,59.01
2023-10-20T12:06:08.752Z,57.32
2023-10-20T12:08:42.885Z,55.96
2023-10-20T12:11:10.173Z,55.73
2023-10-20T12:13:38.438Z,54.94
2023-10-20T12:16:06.916Z,54.80
2023-10-20T12:18:34.671Z,54.09
2023-10-20T12:21:05.388Z,53.59
2023-10-20T12:23:33.303Z,52.20
2023-10-20T12:26:04.796Z,52.27
2023-10-20T12:28:32.846Z,51.14
2023-10-20T12:31:01.126Z,50.16
2023-10-20T12:33:30.976Z,49.41
2023-10-20T12:35:58.859Z,49.11
2023-10-20T12:38:27.365Z,49.47
2023-10-20T12:40:57.041Z,48.95
2023-10-20T12:43:26.438Z,49.35
2023-10-20T12:45:53.706Z,49.48
2023-10-20T12:48:22.104Z,50.02
2023-10-20T12:50:49.528Z,49.89
2023-10-20T12:53:18.332Z,49.55
2023-10-20T12:55:48.829Z,48.94
2023-10-20T12:58:16.380Z,48.87
2023-10-20T13:00:46.785Z,48.75
2023-10-20T13:03:14.232Z,48.68
2023-10-20T13:05:42.796Z,49.37
2023-10-20T13:08:10.817Z,47.93
2023-10-20T13:10:38.043Z,47.61
2023-10-20T13:13:05.682Z,47.81
2023-10-20T13:15:33.410Z,47.81
2023-10-20T13:18:00.761Z,47.65
2023-10-20T13:20:30.521Z,48.02
2023-10-20T13:22:59.733Z,47.96
2023-10-20T13:25:29.413Z,47.81
2023-10-20T13:28:00.959Z,47.43
2023-10-20T13:30:30.546Z,47.59
2023-10-20T13:32:57.853Z,47.89
2023-10-20T13:35:30.011Z,48.00
2023-10-20T13:37:59.601Z,48.03
2023-10-20T13:40:32.016Z,47.54
2023-10-20T13:42:59.657Z,47.62
2023-10-20T13:45:32.063Z,47.41
2023-10-20T13:48:01.598Z,47.53
2023-10-20T13:50:29.507Z,47.58
2023-10-20T13:52:59.330Z,47.52
2023-10-20T13:55:27.382Z,47.96
2023-10-20T13:57:55.246Z,47.76
2023-10-20T14:00:22.483Z,48.23
2023-10-20T14:02:49.978Z,48.61
2023-10-20T14:05:20.511Z,48.69
2023-10-20T14:07:47.686Z,48.78
2023-10-20T14:10:15.023Z,49.09
2023-10-20T14:12:43.411Z,48.78
2023-10-20T14:15:11.207Z,48.95
2023-10-20T14:17:38.670Z,49.37
2023-10-20T14:20:06.635Z,49.43
2023-10-20T14:22:33.867Z,49.84
2023-10-20T14:25:01.070Z,49.94
2023-10-20T14:27:28.699Z,49.88
2023-10-20T14:29:56.031Z,50.15
2023-10-20T14:32:24.043Z,50.07
2023-10-20T14:34:51.394Z,50.26
2023-10-20T14:37:18.716Z,50.08
2023-10-20T14:39:50.488Z,50.27
2023-10-20T14:42:17.675Z,50.65
2023-10-20T14:44:47.231Z,50.89
2023-10-20T14:47:17.040Z,50.92
2023-10-20T14:49:49.724Z,51.08
2023-10-20T14:52:17.803Z,51.27
2023-10-20T14:54:46.358Z,51.08
2023-10-20T14:57:13.647Z,51.25
2023-10-20T14:59:40.973Z,51.24
2023-10-20T15:02:09.256Z,51.56
2023-10-20T15:04:38.967Z,51.46
2023-10-20T15:07:06.515Z,51.74
2023-10-20T15:09:33.926Z,51.87
2023-10-20T15:12:01.644Z,52.12
2023-10-20T15:14:29.005Z,52.15
2023-10-20T15:16:58.181Z,52.32
2023-10-20T15:19:25.783Z,52.54
2023-10-20T15:21:54.666Z,52.59
2023-10-20T15:24:21.881Z,52.47
2023-10-20T15:26:49.278Z,52.70
2023-10-20T15:29:19.167Z,52.64
2023-10-20T15:31:46.442Z,52.60
2023-10-20T15:34:16.642Z,52.61
2023-10-20T15:36:51.024Z,52.65
2023-10-20T15:39:26.572Z,52.74
2023-10-20T15:41:58.329Z,52.75
2023-10-20T15:44:25.750Z,52.79
2023-10-20T15:47:11.928Z,52.84
2023-10-20T15:49:44.452Z,52.86
2023-10-20T15:52:33.065Z,53.09
2023-10-20T15:55:02.967Z,53.08
2023-10-20T15:57:32.883Z,53.25
2023-10-20T16:00:00.150Z,53.40
2023-10-20T16:02:29.379Z,53.27
2023-10-20T16:05:16.948Z,53.37
2023-10-20T16:07:44.303Z,53.62
2023-10-20T16:10:11.730Z,53.44
2023-10-20T16:12:39.427Z,53.52
2023-10-20T16:15:08.095Z,53.36
2023-10-20T16:17:56.971Z,53.63
2023-10-20T16:20:24.220Z,53.68
2023-10-20T16:22:51.606Z,53.47
2023-10-20T16:25:39.812Z,53.76
2023-10-20T16:28:08.506Z,53.79
2023-10-20T16:30:55.733Z,53.87
2023-10-20T16:33:23.386Z,53.95
2023-10-20T16:35:55.992Z,54.14
2023-10-20T16:38:24.103Z,54.18
2023-10-20T16:40:57.254Z,54.08
2023-10-20T16:43:25.381Z,54.11
2023-10-20T16:45:54.556Z,54.36
2023-10-20T16:48:26.994Z,54.52
2023-10-20T16:50:59.948Z,54.41
2023-10-20T16:53:29.889Z,54.51
2023-10-20T16:56:00.712Z,54.72
2023-10-20T16:58:28.310Z,55.08
2023-10-20T17:01:02.498Z,54.98
2023-10-20T17:03:32.334Z,55.15
2023-10-20T17:06:09.046Z,55.17
2023-10-20T17:08:38.591Z,55.36
2023-10-20T17:11:08.215Z,55.38
2023-10-20T17:13:37.725Z,55.56
2023-10-20T17:16:06.140Z,55.76
2023-10-20T17:18:33.846Z,55.85
2023-10-20T17:21:05.044Z,55.96
2023-10-20T17:23:52.633Z,56.13
2023-10-20T17:26:20.759Z,56.26
2023-10-20T17:28:48.998Z,56.30
2023-10-20T17:31:16.309Z,56.39
2023-10-20T17:33:43.831Z,56.66
2023-10-20T17:36:31.221Z,56.73
2023-10-20T17:38:59.223Z,56.99
2023-10-20T17:41:26.588Z,56.96
2023-10-20T17:43:54.741Z,57.06
2023-10-20T17:46:23.799Z,56.99
2023-10-20T17:48:53.478Z,57.32
2023-10-20T17:51:22.392Z,57.43
2023-10-20T17:53:53.294Z,57.30
2023-10-20T17:56:22.160Z,57.41
2023-10-20T17:58:49.486Z,57.63
2023-10-20T18:01:18.026Z,57.85
2023-10-20T18:03:46.467Z,57.96
2023-10-20T18:06:18.906Z,58.34
2023-10-20T18:08:53.169Z,58.33
2023-10-20T18:11:22.578Z,58.54
2023-10-20T18:13:52.661Z,58.63
2023-10-20T18:16:22.979Z,59.01
2023-10-20T18:18:50.882Z,58.97
2023-10-20T18:21:21.113Z,59.09
2023-10-20T18:23:49.036Z,59.39
2023-10-20T18:26:16.655Z,59.40
2023-10-20T18:28:43.974Z,59.50
2023-10-20T18:31:19.045Z,59.52
2023-10-20T18:33:49.057Z,59.76
2023-10-20T18:36:19.300Z,60.26
2023-10-20T18:38:46.722Z,60.27
2023-10-20T18:41:17.133Z,60.54
2023-10-20T18:43:44.429Z,61.00
2023-10-20T18:46:14.253Z,61.51
2023-10-20T18:48:43.048Z,62.04
2023-10-20T18:51:12.492Z,62.38
2023-10-20T18:53:44.179Z,62.61
2023-10-20T18:56:11.993Z,62.74
2023-10-20T18:58:44.773Z,62.97
2023-10-20T19:01:16.276Z,63.01
2023-10-20T19:03:48.629Z,62.75
2023-10-20T19:06:17.362Z,62.35
2023-10-20T19:08:45.019Z,62.67
2023-10-20T19:11:15.627Z,62.40
2023-10-20T19:13:47.385Z,62.65
2023-10-20T19:16:19.502Z,62.69
2023-10-20T19:18:48.495Z,62.36
2023-10-20T19:21:18.088Z,62.16
2023-10-20T19:23:47.384Z,62.07
2023-10-20T19:26:16.057Z,62.09
2023-10-20T19:28:45.793Z,62.25
2023-10-20T19:31:13.028Z,62.03
2023-10-20T19:33:42.352Z,62.41
2023-10-20T19:36:10.398Z,62.31
2023-10-20T19:38:39.653Z,62.25
2023-10-20T19:41:13.104Z,62.13
2023-10-20T19:43:40.826Z,62.13
2023-10-20T19:46:15.166Z,62.08
2023-10-20T19:48:43.252Z,61.73
2023-10-20T19:51:12.787Z,61.66
2023-10-20T19:53:41.206Z,61.57
2023-10-20T19:56:10.718Z,61.36
2023-10-20T19:58:39.282Z,61.13
2023-10-20T20:01:06.576Z,61.03
2023-10-20T20:03:39.559Z,60.77
2023-10-20T20:06:22.882Z,60.68
2023-10-20T20:08:50.079Z,60.45
2023-10-20T20:11:18.770Z,60.30
2023-10-20T20:13:47.883Z,60.25
2023-10-20T20:16:17.007Z,60.16
2023-10-20T20:18:44.945Z,60.14
2023-10-20T20:21:13.193Z,59.88
2023-10-20T20:23:48.570Z,59.85
2023-10-20T20:26:20.785Z,59.77
2023-10-20T20:28:48.732Z,59.80
2023-10-20T20:31:35.926Z,59.66
2023-10-20T20:34:07.950Z,59.61
2023-10-20T20:36:35.051Z,59.70
2023-10-20T20:39:06.710Z,59.07
2023-10-20T20:41:33.848Z,59.15
2023-10-20T20:44:01.062Z,59.15
2023-10-20T20:46:30.074Z,58.88
2023-10-20T20:48:57.449Z,58.65
2023-10-20T20:51:24.593Z,58.59
2023-10-20T20:53:54.033Z,58.45
2023-10-20T20:56:21.134Z,58.28
2023-10-20T20:58:48.265Z,58.06
2023-10-20T21:01:15.944Z,57.85
2023-10-20T21:03:46.011Z,57.87
2023-10-20T21:06:14.092Z,57.89
2023-10-20T21:08:42.445Z,57.91
2023-10-20T21:11:14.406Z,57.90
2023-10-20T21:13:43.501Z,57.88
2023-10-20T21:16:11.539Z,57.90
2023-10-20T21:18:39.280Z,57.82
2023-10-20T21:21:15.595Z,57.92
2023-10-20T21:23:46.065Z,57.87
2023-10-20T21:26:14.238Z,57.80
2023-10-20T21:28:43.634Z,57.81
2023-10-20T21:31:12.522Z,58.13
2023-10-20T21:33:39.893Z,58.25
2023-10-20T21:36:07.984Z,58.22
2023-10-20T21:38:37.261Z,58.40
2023-10-20T21:41:06.506Z,58.24
2023-10-20T21:43:33.605Z,58.27
2023-10-20T21:46:00.779Z,58.61
2023-10-20T21:48:30.308Z,58.71
2023-10-20T21:51:03.904Z,58.59
2023-10-20T21:53:34.930Z,58.53
2023-10-20T21:56:04.003Z,58.49
2023-10-20T21:58:32.566Z,58.40
2023-10-20T22:01:01.155Z,58.85
2023-10-20T22:03:30.064Z,58.65
2023-10-20T22:05:57.640Z,58.58
2023-10-20T22:08:25.894Z,58.61
2023-10-20T22:10:53.123Z,58.53
2023-10-20T22:13:20.358Z,58.01
2023-10-20T22:15:49.867Z,58.16
2023-10-20T22:18:18.948Z,57.99
2023-10-20T22:20:47.415Z,57.95
2023-10-20T22:23:15.144Z,57.92
2023-10-20T22:25:42.592Z,57.80
2023-10-20T22:28:12.026Z,57.48
2023-10-20T22:30:39.254Z,57.52
2023-10-20T22:33:06.545Z,57.29
2023-10-20T22:35:35.443Z,56.93
2023-10-20T22:38:03.124Z,56.92
2023-10-20T22:40:30.260Z,56.75
2023-10-20T22:42:57.394Z,56.40
2023-10-20T22:45:24.705Z,56.18
2023-10-20T22:47:51.925Z,56.11
2023-10-20T22:50:21.335Z,55.91
2023-10-20T22:52:49.081Z,55.92
2023-10-20T22:55:18.561Z,55.72
2023-10-20T22:57:49.107Z,55.60
2023-10-20T23:00:16.890Z,55.43
2023-10-20T23:02:46.352Z,55.24
2023-10-20T23:05:13.842Z,55.21
2023-10-20T23:07:41.193Z,55.05
2023-10-20T23:10:11.341Z,54.99
2023-10-20T23:12:39.045Z,54.80
2023-10-20T23:15:07.647Z,54.90
2023-10-20T23:17:35.671Z,54.55
2023-10-20T23:20:08.759Z,54.59
2023-10-20T23:22:38.236Z,54.42
2023-10-20T23:25:08.385Z,54.33
2023-10-20T23:27:35.585Z,54.28
2023-10-20T23:30:08.244Z,54.37
2023-10-20T23:32:35.493Z,54.43
2023-10-20T23:35:03.328Z,54.43
2023-10-20T23:37:32.892Z,54.11
2023-10-20T23:40:00.381Z,54.47
2023-10-20T23:42:28.269Z,54.24
2023-10-20T23:44:55.984Z,54.34
2023-10-20T23:47:23.685Z,54.31
2023-10-20T23:49:53.065Z,54.60
2023-10-20T23:52:20.168Z,54.54
2023-10-20T23:54:54.874Z,54.48
2023-10-20T23:57:24.222Z,54.52
2023-10-20T23:59:53.607Z,54.62
